Time;durP1;ratioP1;P1;durP2;ratioP2;P2;SDS_P1;SDS_P2;PMS_P1;PMS_P2;Temp;Humidity;BMP_temperature;BMP_pressure;BME280_temperature;BME280_humidity;BME280_pressure;Samples;Min_cycle;Max_cycle;Signal;HPM_P1;HPM_P2
2024/01/27 00:01:34;;;;;;;11.40;5.00;;;3.00;98.00;;;;;;5011697;28;20454;-66
2024/01/27 00:04:03;;;;;;;10.53;4.73;;;3.00;98.00;;;;;;5013039;28;20832;-67
2024/01/27 00:06:30;;;;;;;9.70;4.70;;;2.80;98.00;;;;;;5012858;28;20819;-66
2024/01/27 00:09:05;;;;;;;10.60;4.63;;;2.60;98.00;;;;;;5012914;28;20452;-66
2024/01/27 00:11:32;;;;;;;10.93;4.70;;;2.50;98.00;;;;;;5012904;28;20462;-66
2024/01/27 00:14:01;;;;;;;10.70;4.83;;;2.50;98.00;;;;;;5012818;28;20463;-66
2024/01/27 00:16:28;;;;;;;10.33;4.40;;;2.40;98.00;;;;;;5012549;28;20539;-67
2024/01/27 00:18:55;;;;;;;10.10;4.60;;;2.30;98.00;;;;;;5012570;28;20511;-66
2024/01/27 00:21:24;;;;;;;10.83;4.53;;;2.30;98.00;;;;;;5012573;28;20965;-66
2024/01/27 00:23:51;;;;;;;11.17;4.70;;;2.30;98.00;;;;;;5012696;28;20509;-67
2024/01/27 00:26:18;;;;;;;8.60;4.17;;;2.40;98.00;;;;;;5011399;28;20457;-66
2024/01/27 00:28:45;;;;;;;9.70;4.80;;;2.40;98.00;;;;;;5012350;28;20455;-66
2024/01/27 00:31:14;;;;;;;12.90;4.67;;;2.40;98.00;;;;;;5012352;28;20451;-66
2024/01/27 00:33:41;;;;;;;9.13;3.90;;;2.30;98.00;;;;;;5011458;28;20829;-66
2024/01/27 00:36:08;;;;;;;10.20;4.60;;;2.30;98.00;;;;;;5012619;28;20449;-66
2024/01/27 00:38:36;;;;;;;8.07;4.50;;;2.30;98.00;;;;;;5012473;28;20488;-66
2024/01/27 00:41:03;;;;;;;10.33;4.60;;;2.20;98.00;;;;;;5012461;28;20455;-66
2024/01/27 00:43:31;;;;;;;11.00;4.70;;;2.30;98.00;;;;;;5011232;28;21018;-66
2024/01/27 00:45:58;;;;;;;10.07;5.00;;;2.20;98.00;;;;;;5011125;28;20885;-66
2024/01/27 00:48:25;;;;;;;10.70;4.60;;;2.10;98.00;;;;;;5012245;28;20452;-66
2024/01/27 00:50:52;;;;;;;9.80;4.90;;;2.10;98.00;;;;;;5011168;28;20949;-66
2024/01/27 00:53:19;;;;;;;10.40;4.53;;;2.10;98.00;;;;;;5011081;28;20885;-66
2024/01/27 00:55:48;;;;;;;9.80;4.93;;;2.10;98.00;;;;;;5012329;28;20456;-66
2024/01/27 00:58:16;;;;;;;12.80;4.73;;;2.20;98.00;;;;;;5011883;28;20845;-66
2024/01/27 01:00:43;;;;;;;12.10;4.70;;;2.10;98.00;;;;;;5012019;28;20455;-66
2024/01/27 01:03:10;;;;;;;10.50;4.53;;;2.10;98.00;;;;;;5012099;28;20444;-66
2024/01/27 01:05:37;;;;;;;14.63;6.23;;;2.10;98.00;;;;;;5011947;28;20823;-66
2024/01/27 01:08:06;;;;;;;11.80;5.40;;;2.00;98.00;;;;;;5011724;28;20449;-66
2024/01/27 01:10:33;;;;;;;11.53;5.30;;;2.00;98.00;;;;;;5012044;28;20684;-66
2024/01/27 01:13:01;;;;;;;10.40;4.50;;;2.10;98.00;;;;;;5011865;28;20950;-66
2024/01/27 01:15:29;;;;;;;13.03;5.20;;;2.10;98.00;;;;;;5011630;28;20463;-66
2024/01/27 01:17:56;;;;;;;11.37;5.27;;;2.00;98.00;;;;;;5011278;28;20483;-66
2024/01/27 01:20:25;;;;;;;8.47;4.30;;;2.10;98.00;;;;;;5011561;28;20454;-67
2024/01/27 01:22:53;;;;;;;7.80;4.37;;;2.20;98.00;;;;;;5011883;28;20708;-66
2024/01/27 01:25:20;;;;;;;11.80;5.20;;;2.30;98.00;;;;;;5010243;28;20463;-66
2024/01/27 01:27:49;;;;;;;9.50;4.67;;;2.20;98.00;;;;;;5011392;28;20452;-66
2024/01/27 01:30:18;;;;;;;9.97;5.10;;;2.10;98.00;;;;;;5011543;28;20478;-66
2024/01/27 01:32:45;;;;;;;12.10;4.67;;;2.30;98.00;;;;;;5011499;28;20456;-66
2024/01/27 01:35:12;;;;;;;13.80;4.40;;;2.30;98.00;;;;;;5011495;28;20836;-66
2024/01/27 01:37:39;;;;;;;7.63;4.60;;;2.40;98.00;;;;;;5010012;28;20463;-66
2024/01/27 01:40:08;;;;;;;11.37;5.43;;;2.40;98.00;;;;;;5011441;28;20455;-66
2024/01/27 01:42:35;;;;;;;12.87;5.30;;;2.20;98.00;;;;;;5011343;28;20475;-66
2024/01/27 01:45:02;;;;;;;12.43;5.50;;;2.20;98.00;;;;;;5011160;28;20452;-66
2024/01/27 01:47:32;;;;;;;10.90;5.30;;;2.30;98.00;;;;;;5010041;28;20954;-66
2024/01/27 01:50:00;;;;;;;16.73;5.30;;;2.20;98.00;;;;;;5011464;28;20861;-66
2024/01/27 01:52:27;;;;;;;13.13;5.03;;;2.10;98.00;;;;;;5011201;28;20954;-66
2024/01/27 01:54:54;;;;;;;10.17;4.77;;;2.00;98.00;;;;;;5010091;28;20458;-66
2024/01/27 01:57:21;;;;;;;12.83;5.30;;;2.00;98.00;;;;;;5009926;28;20451;-66
2024/01/27 01:59:48;;;;;;;9.90;4.83;;;1.80;98.00;;;;;;5010030;28;20541;-66
2024/01/27 02:02:16;;;;;;;8.90;3.97;;;2.00;98.00;;;;;;5011051;28;20455;-66
2024/01/27 02:04:46;;;;;;;12.80;5.10;;;2.10;98.00;;;;;;5013650;28;20450;-66
2024/01/27 02:07:13;;;;;;;13.13;4.57;;;2.10;98.00;;;;;;5015130;28;20543;-66
2024/01/27 02:09:40;;;;;;;9.43;4.67;;;2.10;98.00;;;;;;5015137;28;20470;-66
2024/01/27 02:12:08;;;;;;;10.67;4.40;;;2.20;98.00;;;;;;5014943;28;20453;-66
2024/01/27 02:14:35;;;;;;;6.00;3.47;;;2.20;98.00;;;;;;5015187;28;20514;-66
2024/01/27 02:17:02;;;;;;;14.03;3.93;;;2.20;98.00;;;;;;5015005;28;20456;-66
2024/01/27 02:19:29;;;;;;;7.50;3.97;;;2.20;98.00;;;;;;5014973;28;20490;-66
2024/01/27 02:21:57;;;;;;;8.33;4.43;;;2.20;98.00;;;;;;5014934;28;20962;-67
2024/01/27 02:24:27;;;;;;;7.80;4.10;;;2.30;98.00;;;;;;5014778;28;20961;-66
2024/01/27 02:26:54;;;;;;;10.43;4.40;;;2.30;98.00;;;;;;5014529;28;20457;-66
2024/01/27 02:29:21;;;;;;;7.90;3.80;;;2.40;98.00;;;;;;5013586;28;20456;-66
2024/01/27 02:31:48;;;;;;;8.83;4.40;;;2.40;98.00;;;;;;5014903;28;20468;-66
2024/01/27 02:34:15;;;;;;;6.60;4.07;;;2.40;98.00;;;;;;5014696;28;20462;-66
2024/01/27 02:36:43;;;;;;;8.67;3.73;;;2.40;98.00;;;;;;5014868;28;20463;-66
2024/01/27 02:39:11;;;;;;;8.93;4.00;;;2.30;98.00;;;;;;5014861;28;20520;-66
2024/01/27 02:41:39;;;;;;;9.73;4.40;;;2.40;98.00;;;;;;5014796;28;20475;-66
2024/01/27 02:44:07;;;;;;;9.57;4.27;;;2.40;98.00;;;;;;5014774;28;20466;-66
2024/01/27 02:46:34;;;;;;;9.50;4.67;;;2.50;98.00;;;;;;5014334;28;20455;-66
2024/01/27 02:49:01;;;;;;;11.40;4.00;;;2.30;98.00;;;;;;5014404;28;20456;-66
2024/01/27 02:51:28;;;;;;;11.67;4.73;;;2.20;98.00;;;;;;5013030;28;20887;-66
2024/01/27 02:53:55;;;;;;;9.70;4.63;;;2.10;98.00;;;;;;5014484;28;20455;-66
2024/01/27 02:56:22;;;;;;;8.87;4.53;;;2.10;98.00;;;;;;5012900;28;20829;-65
2024/01/27 02:58:50;;;;;;;9.23;3.97;;;2.10;98.00;;;;;;5014251;28;20487;-66
2024/01/27 03:01:17;;;;;;;11.80;4.50;;;2.10;98.00;;;;;;5014055;28;20462;-66
2024/01/27 03:03:45;;;;;;;10.67;3.90;;;2.00;98.00;;;;;;5014277;28;20448;-66
2024/01/27 03:06:13;;;;;;;7.73;4.03;;;1.90;98.00;;;;;;5012696;28;20467;-66
2024/01/27 03:08:40;;;;;;;7.63;3.87;;;1.80;98.00;;;;;;5014138;28;20460;-66
2024/01/27 03:11:07;;;;;;;9.80;4.50;;;1.60;98.00;;;;;;5013946;28;20460;-66
2024/01/27 03:13:34;;;;;;;7.80;4.10;;;1.40;98.00;;;;;;5013970;28;20445;-66
2024/01/27 03:16:05;;;;;;;9.13;4.70;;;1.30;98.00;;;;;;5012612;28;20447;-66
2024/01/27 03:18:32;;;;;;;11.90;5.10;;;1.30;98.00;;;;;;5012685;28;20997;-66
2024/01/27 03:20:59;;;;;;;8.10;4.10;;;1.30;98.00;;;;;;5013724;28;20455;-66
2024/01/27 03:23:26;;;;;;;11.63;4.90;;;1.30;98.00;;;;;;5014004;28;20458;-66
2024/01/27 03:25:54;;;;;;;8.60;4.20;;;1.40;98.00;;;;;;5012486;28;20824;-66
2024/01/27 03:28:21;;;;;;;10.20;4.73;;;1.50;98.00;;;;;;5013892;28;20447;-66
2024/01/27 03:30:48;;;;;;;12.00;4.67;;;1.60;98.00;;;;;;5013701;28;20459;-66
2024/01/27 03:33:17;;;;;;;11.07;5.20;;;1.80;98.00;;;;;;5012446;28;20455;-66
2024/01/27 03:35:44;;;;;;;12.10;5.60;;;1.80;98.00;;;;;;5013416;28;20448;-66
2024/01/27 03:38:11;;;;;;;8.53;3.93;;;1.60;98.00;;;;;;5013298;28;20451;-66
2024/01/27 03:40:39;;;;;;;11.57;4.70;;;1.50;98.00;;;;;;5013392;28;20452;-66
2024/01/27 03:43:06;;;;;;;9.20;4.13;;;1.40;98.00;;;;;;5013414;28;20452;-67
2024/01/27 03:45:36;;;;;;;7.10;4.03;;;1.50;98.00;;;;;;5013295;28;20447;-67
2024/01/27 03:48:03;;;;;;;10.90;4.33;;;1.60;98.00;;;;;;5013518;28;20830;-66
2024/01/27 03:50:32;;;;;;;7.07;3.53;;;1.50;98.00;;;;;;5013290;28;20826;-67
2024/01/27 03:52:59;;;;;;;6.57;4.10;;;1.50;98.00;;;;;;5013023;28;20455;-65
2024/01/27 03:55:26;;;;;;;8.87;4.33;;;1.50;98.00;;;;;;5012079;28;20478;-66
2024/01/27 03:57:53;;;;;;;7.60;4.43;;;1.60;98.00;;;;;;5011901;28;20456;-66
2024/01/27 04:00:21;;;;;;;6.30;3.90;;;1.70;98.00;;;;;;5012975;28;20483;-66
2024/01/27 04:02:48;;;;;;;10.80;4.30;;;1.60;98.00;;;;;;5012776;28;20455;-66
2024/01/27 04:05:15;;;;;;;8.80;4.63;;;1.50;98.00;;;;;;5012946;28;20815;-65
2024/01/27 04:07:45;;;;;;;8.20;3.67;;;1.40;98.00;;;;;;5011786;28;20463;-66
2024/01/27 04:10:12;;;;;;;9.77;4.33;;;1.40;98.00;;;;;;5012950;28;20557;-66
2024/01/27 04:12:39;;;;;;;8.73;4.33;;;1.50;98.00;;;;;;5011610;28;20494;-66
2024/01/27 04:15:07;;;;;;;7.23;3.37;;;1.60;98.00;;;;;;5012863;28;20467;-66
2024/01/27 04:17:43;;;;;;;9.57;3.97;;;1.40;98.00;;;;;;5012679;28;20528;-66
2024/01/27 04:20:12;;;;;;;9.40;4.37;;;1.30;98.00;;;;;;5011532;28;20483;-66
2024/01/27 04:22:39;;;;;;;7.60;4.20;;;1.00;98.00;;;;;;5012766;28;20827;-66
2024/01/27 04:25:09;;;;;;;8.80;3.93;;;0.90;98.00;;;;;;5012614;28;20454;-66
2024/01/27 04:27:39;;;;;;;7.43;4.03;;;0.90;98.00;;;;;;5012596;28;20448;-66
2024/01/27 04:30:08;;;;;;;11.00;4.40;;;0.80;98.00;;;;;;5012908;28;20448;-66
2024/01/27 04:32:36;;;;;;;8.60;4.07;;;0.80;98.00;;;;;;5012847;28;20487;-66
2024/01/27 04:35:06;;;;;;;6.47;3.63;;;0.90;98.00;;;;;;5013260;28;20452;-66
2024/01/27 04:37:33;;;;;;;6.33;3.80;;;0.90;98.00;;;;;;5013788;28;20452;-66
2024/01/27 04:40:00;;;;;;;8.07;4.20;;;0.70;98.00;;;;;;5013054;28;20484;-66
2024/01/27 04:42:28;;;;;;;6.57;3.50;;;0.90;98.00;;;;;;5013263;28;20491;-66
2024/01/27 04:44:56;;;;;;;7.90;3.60;;;0.80;98.00;;;;;;5012499;28;20486;-66
2024/01/27 04:47:23;;;;;;;10.57;4.27;;;0.80;98.00;;;;;;5012354;28;20557;-66
2024/01/27 04:49:51;;;;;;;7.10;4.03;;;0.70;98.00;;;;;;5012422;28;20455;-66
2024/01/27 04:52:19;;;;;;;9.00;3.70;;;0.90;98.00;;;;;;5012021;28;21015;-66
2024/01/27 04:54:46;;;;;;;5.73;3.07;;;0.90;98.00;;;;;;5010937;28;20455;-66
2024/01/27 04:57:13;;;;;;;8.73;4.07;;;0.90;98.00;;;;;;5012151;28;20463;-66
2024/01/27 04:59:41;;;;;;;6.47;3.63;;;0.80;98.00;;;;;;5011877;28;20484;-66
2024/01/27 05:02:09;;;;;;;6.00;3.17;;;0.90;98.00;;;;;;5012030;28;20458;-66
2024/01/27 05:04:38;;;;;;;7.30;3.50;;;0.90;98.00;;;;;;5011863;28;20466;-66
2024/01/27 05:07:05;;;;;;;6.80;3.50;;;0.80;98.00;;;;;;5011801;28;20447;-65
2024/01/27 05:09:34;;;;;;;9.07;3.70;;;0.90;98.00;;;;;;5012021;28;20828;-66
2024/01/27 05:12:02;;;;;;;7.20;3.50;;;0.90;98.00;;;;;;5010470;28;20451;-66
2024/01/27 05:14:29;;;;;;;9.87;3.73;;;0.90;98.00;;;;;;5011910;28;20813;-66
2024/01/27 05:16:57;;;;;;;7.50;3.50;;;0.80;98.00;;;;;;5011550;28;20478;-66
2024/01/27 05:19:25;;;;;;;10.63;3.23;;;0.90;98.00;;;;;;5011691;28;20537;-66
2024/01/27 05:21:52;;;;;;;8.67;4.47;;;0.90;98.00;;;;;;5011267;28;20471;-66
2024/01/27 05:24:19;;;;;;;9.07;3.90;;;0.90;98.00;;;;;;5011284;28;20505;-66
2024/01/27 05:26:46;;;;;;;7.13;3.30;;;1.10;98.00;;;;;;5011711;28;20819;-66
2024/01/27 05:29:13;;;;;;;4.63;3.07;;;1.30;98.00;;;;;;5011598;28;20816;-66
2024/01/27 05:31:43;;;;;;;6.30;3.20;;;1.10;98.00;;;;;;5011512;28;20455;-66
2024/01/27 05:34:14;;;;;;;6.50;3.27;;;1.00;98.00;;;;;;5010379;28;20451;-66
2024/01/27 05:36:42;;;;;;;12.73;2.80;;;0.90;98.00;;;;;;5011302;28;20538;-66
2024/01/27 05:39:09;;;;;;;6.30;2.93;;;0.80;98.00;;;;;;5009563;28;20495;-66
2024/01/27 05:41:36;;;;;;;4.70;2.97;;;0.90;98.00;;;;;;5011442;28;20464;-66
2024/01/27 05:44:04;;;;;;;5.30;2.93;;;0.90;98.00;;;;;;5011300;28;20485;-66
2024/01/27 05:46:31;;;;;;;4.97;2.77;;;0.70;98.00;;;;;;5010083;28;20732;-66
2024/01/27 05:49:02;;;;;;;8.37;3.30;;;0.60;98.00;;;;;;5010226;28;20462;-66
2024/01/27 05:51:33;;;;;;;5.53;3.00;;;0.70;98.00;;;;;;5011300;28;20970;-66
2024/01/27 05:54:00;;;;;;;6.80;2.93;;;0.80;98.00;;;;;;5010967;28;20455;-66
2024/01/27 05:56:28;;;;;;;7.60;3.70;;;0.80;98.00;;;;;;5011120;28;20534;-66
2024/01/27 05:58:55;;;;;;;7.00;3.30;;;0.60;98.00;;;;;;5011236;28;20459;-66
2024/01/27 06:01:22;;;;;;;7.27;3.30;;;0.50;98.00;;;;;;5011303;28;20446;-66
2024/01/27 06:03:49;;;;;;;6.90;3.20;;;0.60;98.00;;;;;;5011437;28;20457;-66
2024/01/27 06:06:16;;;;;;;6.53;3.20;;;0.60;98.00;;;;;;5011023;28;20459;-66
2024/01/27 06:08:44;;;;;;;6.93;3.30;;;0.80;98.00;;;;;;5011247;28;20458;-66
2024/01/27 06:11:11;;;;;;;5.73;3.10;;;0.70;98.00;;;;;;5011128;28;20462;-66
2024/01/27 06:13:40;;;;;;;7.23;3.37;;;0.60;98.00;;;;;;5011485;28;20864;-66
2024/01/27 06:16:10;;;;;;;7.53;3.70;;;0.50;98.00;;;;;;5009992;28;20457;-65
2024/01/27 06:18:38;;;;;;;10.07;3.97;;;0.40;98.00;;;;;;5011187;28;20465;-66
2024/01/27 06:21:07;;;;;;;12.80;3.30;;;0.40;98.00;;;;;;5009826;28;21086;-66
2024/01/27 06:23:34;;;;;;;6.17;2.77;;;0.40;98.00;;;;;;5011403;28;20451;-66
2024/01/27 06:26:06;;;;;;;6.40;3.40;;;0.40;98.00;;;;;;5011196;28;20642;-66
2024/01/27 06:28:34;;;;;;;6.63;3.57;;;0.50;98.00;;;;;;5010065;28;20470;-66
2024/01/27 06:31:01;;;;;;;6.50;3.40;;;0.40;98.00;;;;;;5011210;28;20452;-66
2024/01/27 06:33:28;;;;;;;7.27;3.37;;;0.50;98.00;;;;;;5011117;28;20455;-66
2024/01/27 06:35:55;;;;;;;5.80;3.17;;;0.70;98.00;;;;;;5010839;28;20451;-66
2024/01/27 06:38:23;;;;;;;7.93;3.40;;;0.80;98.00;;;;;;5011045;28;20944;-66
2024/01/27 06:40:50;;;;;;;7.07;3.60;;;0.80;98.00;;;;;;5010873;28;20488;-66
2024/01/27 06:43:19;;;;;;;9.30;4.27;;;0.80;98.00;;;;;;5009699;28;20451;-66
2024/01/27 06:45:46;;;;;;;19.40;7.37;;;0.60;98.00;;;;;;5011036;28;20455;-66
2024/01/27 06:48:13;;;;;;;9.93;4.50;;;0.40;98.00;;;;;;5010728;28;20716;-66
2024/01/27 06:50:40;;;;;;;5.80;3.37;;;0.30;98.00;;;;;;5011709;28;21023;-66
2024/01/27 06:53:07;;;;;;;4.50;2.90;;;0.30;98.00;;;;;;5014153;28;20459;-66
2024/01/27 06:55:34;;;;;;;8.10;3.50;;;0.40;98.00;;;;;;5014365;28;20467;-65
2024/01/27 06:58:02;;;;;;;6.20;3.03;;;0.40;98.00;;;;;;5012915;28;20461;-66
2024/01/27 07:00:30;;;;;;;5.67;3.10;;;0.50;98.00;;;;;;5013900;28;20487;-62
2024/01/27 07:02:59;;;;;;;7.17;3.37;;;0.60;98.00;;;;;;5014121;28;20451;-62
2024/01/27 07:05:26;;;;;;;10.03;3.47;;;0.70;98.00;;;;;;5013001;28;20458;-62
2024/01/27 07:07:53;;;;;;;10.53;3.40;;;0.80;98.00;;;;;;5014089;28;20487;-62
2024/01/27 07:10:20;;;;;;;9.50;3.93;;;0.60;98.00;;;;;;5014131;28;20919;-62
2024/01/27 07:12:47;;;;;;;7.50;3.67;;;0.70;98.00;;;;;;5013530;28;20463;-62
2024/01/27 07:15:15;;;;;;;7.00;3.40;;;0.60;98.00;;;;;;5013966;28;20463;-62
2024/01/27 07:17:43;;;;;;;6.97;3.50;;;0.60;98.00;;;;;;5012699;28;20956;-62
2024/01/27 07:20:11;;;;;;;8.30;3.63;;;0.50;98.00;;;;;;5013816;28;20486;-62
2024/01/27 07:22:38;;;;;;;8.40;3.40;;;0.40;98.00;;;;;;5012672;28;20874;-63
2024/01/27 07:25:10;;;;;;;6.77;3.33;;;0.50;98.00;;;;;;5013247;28;20447;-63
2024/01/27 07:27:37;;;;;;;4.73;3.13;;;0.70;98.00;;;;;;5012780;28;21016;-63
2024/01/27 07:30:09;;;;;;;7.17;3.50;;;0.60;98.00;;;;;;5012767;28;20823;-63
2024/01/27 07:32:37;;;;;;;7.90;3.73;;;0.60;98.00;;;;;;5013349;28;20470;-63
2024/01/27 07:35:07;;;;;;;8.47;4.20;;;0.40;98.00;;;;;;5013570;28;20519;-63
2024/01/27 07:37:34;;;;;;;7.13;3.60;;;0.20;98.00;;;;;;5013799;28;20462;-63
2024/01/27 07:40:02;;;;;;;7.50;3.67;;;0.20;98.00;;;;;;5013590;28;20973;-63
2024/01/27 07:42:29;;;;;;;8.30;4.30;;;0.30;98.00;;;;;;5013530;28;20523;-63
2024/01/27 07:44:56;;;;;;;6.10;3.57;;;0.30;98.00;;;;;;5012280;28;20449;-63
2024/01/27 07:47:23;;;;;;;9.50;3.80;;;0.10;98.00;;;;;;5013378;28;20459;-63
2024/01/27 07:49:50;;;;;;;11.70;5.03;;;0.10;98.00;;;;;;5013200;28;20877;-63
2024/01/27 07:52:19;;;;;;;6.70;3.60;;;0.10;98.00;;;;;;5013026;28;20470;-63
2024/01/27 07:54:46;;;;;;;8.10;2.93;;;-0.10;98.00;;;;;;5014170;28;20554;-63
2024/01/27 07:57:13;;;;;;;6.27;3.43;;;-0.20;98.00;;;;;;5014199;28;20458;-63
2024/01/27 07:59:40;;;;;;;7.10;3.87;;;0.00;98.00;;;;;;5014247;28;20508;-63
2024/01/27 08:02:07;;;;;;;7.80;3.70;;;0.30;98.00;;;;;;5013313;28;20455;-63
2024/01/27 08:04:35;;;;;;;13.10;4.27;;;0.30;98.00;;;;;;5014056;28;20454;-63
2024/01/27 08:07:06;;;;;;;12.63;3.60;;;0.40;98.00;;;;;;5012610;28;20463;-63
2024/01/27 08:09:35;;;;;;;7.17;3.13;;;0.50;98.00;;;;;;5014393;28;20508;-63
2024/01/27 08:12:02;;;;;;;13.80;4.00;;;0.30;98.00;;;;;;5012517;28;20455;-63
2024/01/27 08:14:32;;;;;;;8.20;3.80;;;0.30;98.00;;;;;;5013717;28;20451;-63
2024/01/27 08:17:00;;;;;;;10.97;4.20;;;0.30;98.00;;;;;;5013449;28;20524;-63
2024/01/27 08:19:27;;;;;;;11.27;4.07;;;0.30;98.00;;;;;;5013480;28;20467;-63
2024/01/27 08:21:54;;;;;;;7.77;3.90;;;0.30;98.00;;;;;;5013366;28;20490;-63
2024/01/27 08:24:22;;;;;;;12.33;4.20;;;0.30;98.00;;;;;;5013441;28;20450;-63
2024/01/27 08:26:51;;;;;;;9.27;4.40;;;0.30;98.00;;;;;;5013036;28;20542;-63
2024/01/27 08:29:18;;;;;;;9.80;4.17;;;0.30;98.00;;;;;;5013027;28;20462;-63
2024/01/27 08:31:45;;;;;;;7.10;3.80;;;0.30;98.00;;;;;;5012910;28;20462;-63
2024/01/27 08:34:13;;;;;;;6.10;4.13;;;0.20;98.00;;;;;;5012890;28;20464;-63
2024/01/27 08:36:40;;;;;;;7.40;3.83;;;0.30;98.00;;;;;;5012302;28;20454;-63
2024/01/27 08:39:08;;;;;;;15.10;4.10;;;0.40;98.00;;;;;;5012285;28;20459;-63
2024/01/27 08:41:36;;;;;;;9.63;4.10;;;0.50;98.00;;;;;;5012083;28;20498;-63
2024/01/27 08:44:05;;;;;;;7.73;3.47;;;0.60;98.00;;;;;;5012221;28;20486;-63
2024/01/27 08:46:33;;;;;;;9.13;4.53;;;0.60;98.00;;;;;;5010934;28;20450;-63
2024/01/27 08:49:00;;;;;;;8.10;4.00;;;0.80;98.00;;;;;;5011031;28;20455;-63
2024/01/27 08:51:27;;;;;;;11.70;4.63;;;1.00;98.00;;;;;;5010785;28;21101;-63
2024/01/27 08:53:54;;;;;;;9.73;4.37;;;1.20;98.00;;;;;;5012249;28;20502;-63
2024/01/27 08:56:21;;;;;;;9.37;4.20;;;1.10;98.00;;;;;;5010908;28;20495;-63
2024/01/27 08:58:48;;;;;;;9.57;4.63;;;1.00;98.00;;;;;;5010822;28;20456;-63
2024/01/27 09:01:18;;;;;;;10.77;4.93;;;1.00;98.00;;;;;;5010116;28;20499;-63
2024/01/27 09:03:47;;;;;;;15.43;4.90;;;1.20;98.00;;;;;;5011356;28;20458;-63
2024/01/27 09:06:14;;;;;;;11.90;5.07;;;1.30;98.00;;;;;;5011645;28;20554;-63
2024/01/27 09:08:41;;;;;;;10.27;4.40;;;1.40;98.00;;;;;;5010455;28;20494;-63
2024/01/27 09:11:09;;;;;;;7.80;4.00;;;1.40;98.00;;;;;;5011792;28;20941;-64
2024/01/27 09:13:36;;;;;;;8.80;3.90;;;1.60;98.00;;;;;;5009793;28;20452;-63
2024/01/27 09:16:03;;;;;;;11.83;5.03;;;1.70;98.00;;;;;;5011687;28;20451;-64
2024/01/27 09:18:32;;;;;;;12.63;5.17;;;1.80;98.00;;;;;;5011503;28;20455;-63
2024/01/27 09:20:59;;;;;;;11.40;5.40;;;1.70;98.00;;;;;;5011596;28;20538;-63
2024/01/27 09:23:26;;;;;;;11.60;5.43;;;1.70;98.00;;;;;;5010392;28;21124;-64
2024/01/27 09:25:53;;;;;;;11.40;5.23;;;1.70;98.00;;;;;;5011555;28;20574;-63
2024/01/27 09:28:22;;;;;;;12.60;4.87;;;1.80;98.00;;;;;;5011500;28;20459;-63
2024/01/27 09:30:49;;;;;;;8.57;4.50;;;2.10;98.00;;;;;;5011631;28;20455;-63
2024/01/27 09:33:17;;;;;;;10.67;4.47;;;2.30;98.00;;;;;;5011399;28;20510;-63
2024/01/27 09:35:46;;;;;;;14.30;4.80;;;2.20;98.00;;;;;;5011849;28;20448;-63
2024/01/27 09:38:14;;;;;;;10.00;4.70;;;2.10;98.00;;;;;;5011925;28;20547;-63
2024/01/27 09:40:41;;;;;;;17.77;4.90;;;2.00;98.00;;;;;;5011720;28;20964;-64
2024/01/27 09:43:13;;;;;;;14.47;6.30;;;2.20;98.00;;;;;;5011660;28;20479;-63
2024/01/27 09:45:40;;;;;;;18.37;6.50;;;2.40;98.00;;;;;;5012386;28;20455;-64
2024/01/27 09:48:11;;;;;;;15.07;5.77;;;2.50;98.00;;;;;;5012135;28;21001;-63
2024/01/27 09:50:40;;;;;;;13.60;6.57;;;2.60;98.00;;;;;;5012083;28;20454;-64
2024/01/27 09:53:10;;;;;;;15.43;6.00;;;2.70;98.00;;;;;;5011963;28;20476;-64
2024/01/27 09:55:37;;;;;;;15.10;6.03;;;2.60;98.00;;;;;;5011622;28;20463;-63
2024/01/27 09:58:05;;;;;;;16.43;5.53;;;2.60;98.00;;;;;;5011574;28;20873;-63
2024/01/27 10:00:32;;;;;;;11.60;6.00;;;2.70;98.00;;;;;;5011410;28;20480;-64
2024/01/27 10:03:00;;;;;;;12.50;5.30;;;2.70;98.00;;;;;;5011547;28;20968;-64
2024/01/27 10:05:28;;;;;;;11.60;4.60;;;2.70;98.00;;;;;;5010340;28;20456;-64
2024/01/27 10:07:55;;;;;;;9.07;4.60;;;2.60;98.00;;;;;;5011597;28;20455;-64
2024/01/27 10:10:23;;;;;;;9.87;4.37;;;2.60;98.00;;;;;;5010246;28;20459;-64
2024/01/27 10:12:54;;;;;;;9.80;4.40;;;2.70;98.00;;;;;;5010542;28;20452;-64
2024/01/27 10:15:22;;;;;;;11.33;4.60;;;2.60;98.00;;;;;;5009995;28;20451;-63
2024/01/27 10:17:52;;;;;;;8.90;4.30;;;2.70;98.00;;;;;;5010987;28;20456;-64
2024/01/27 10:20:19;;;;;;;7.77;4.10;;;2.70;98.00;;;;;;5009875;28;20456;-64
2024/01/27 10:22:46;;;;;;;9.33;4.40;;;2.70;98.00;;;;;;5011181;28;20832;-64
2024/01/27 10:25:14;;;;;;;10.80;4.80;;;2.90;98.00;;;;;;5012580;28;20455;-64
2024/01/27 10:27:43;;;;;;;8.03;4.27;;;3.00;98.00;;;;;;5014949;28;20490;-63
2024/01/27 10:30:17;;;;;;;13.20;4.80;;;3.20;98.00;;;;;;5014887;28;20463;-63
2024/01/27 10:32:44;;;;;;;8.60;4.33;;;3.20;98.00;;;;;;5014846;28;20517;-64
2024/01/27 10:35:11;;;;;;;10.50;4.70;;;3.20;98.00;;;;;;5014512;28;20522;-64
2024/01/27 10:37:39;;;;;;;9.93;4.50;;;3.20;98.00;;;;;;5014773;28;20448;-63
2024/01/27 10:40:09;;;;;;;9.60;4.50;;;3.40;98.00;;;;;;5014672;28;20447;-64
2024/01/27 10:42:36;;;;;;;9.83;4.17;;;3.50;98.00;;;;;;5013407;28;20494;-64
2024/01/27 10:45:06;;;;;;;11.90;4.13;;;3.60;98.00;;;;;;5013230;28;20462;-64
2024/01/27 10:47:34;;;;;;;8.93;4.27;;;3.70;98.00;;;;;;5014602;28;20868;-64
2024/01/27 10:50:02;;;;;;;9.30;4.30;;;3.80;98.00;;;;;;5014772;28;20845;-63
2024/01/27 10:52:32;;;;;;;12.40;5.30;;;4.10;98.00;;;;;;5014291;28;20537;-64
2024/01/27 10:55:02;;;;;;;7.23;3.90;;;4.20;98.00;;;;;;5014205;28;20983;-64
2024/01/27 10:57:31;;;;;;;9.03;4.40;;;4.30;98.00;;;;;;5014224;28;20856;-64
2024/01/27 10:59:59;;;;;;;8.30;4.30;;;4.40;98.00;;;;;;5014205;28;21028;-64
2024/01/27 11:02:32;;;;;;;12.47;4.93;;;4.50;98.00;;;;;;5012942;28;20483;-63
2024/01/27 11:05:01;;;;;;;10.80;4.87;;;4.60;98.00;;;;;;5014098;28;20916;-63
2024/01/27 11:07:29;;;;;;;11.53;5.40;;;4.70;98.00;;;;;;5014137;28;20461;-64
2024/01/27 11:09:56;;;;;;;9.07;4.10;;;5.00;98.00;;;;;;5013942;28;21017;-64
2024/01/27 11:12:25;;;;;;;12.17;5.07;;;5.20;98.00;;;;;;5014216;28;20455;-64
2024/01/27 11:14:52;;;;;;;12.77;4.90;;;5.30;98.00;;;;;;5013808;28;20457;-64
2024/01/27 11:17:20;;;;;;;13.17;5.60;;;5.40;98.00;;;;;;5013815;28;20956;-64
2024/01/27 11:19:50;;;;;;;11.93;5.30;;;5.50;98.00;;;;;;5013849;28;20945;-64
2024/01/27 11:22:26;;;;;;;17.77;7.07;;;5.60;98.00;;;;;;5013677;28;20598;-64
2024/01/27 11:25:05;;;;;;;17.27;7.53;;;5.90;98.00;;;;;;5013834;28;20484;-64
2024/01/27 11:27:32;;;;;;;11.53;5.70;;;5.90;98.00;;;;;;5013059;28;20463;-64
2024/01/27 11:29:59;;;;;;;14.33;6.20;;;6.00;98.00;;;;;;5013633;28;20966;-64
2024/01/27 11:32:27;;;;;;;16.30;6.20;;;6.30;98.00;;;;;;5013633;28;20458;-64
2024/01/27 11:34:56;;;;;;;15.03;6.30;;;6.60;98.00;;;;;;5013597;28;20459;-64
2024/01/27 11:37:24;;;;;;;14.67;6.50;;;6.80;98.00;;;;;;5011443;28;20451;-64
2024/01/27 11:40:04;;;;;;;11.40;5.80;;;6.90;98.00;;;;;;5013525;28;20487;-64
2024/01/27 11:42:32;;;;;;;15.33;6.23;;;7.10;98.00;;;;;;5013599;28;20921;-64
2024/01/27 11:44:59;;;;;;;11.27;5.43;;;7.30;98.00;;;;;;5013585;28;20461;-64
2024/01/27 11:47:27;;;;;;;13.27;5.40;;;7.40;98.00;;;;;;5013435;28;20453;-64
2024/01/27 11:49:57;;;;;;;14.50;5.77;;;7.60;98.00;;;;;;5013491;28;20473;-64
2024/01/27 11:52:24;;;;;;;10.30;5.23;;;7.70;98.00;;;;;;5013316;28;20504;-64
2024/01/27 11:54:56;;;;;;;12.60;5.50;;;8.10;98.00;;;;;;5012332;28;20449;-64
2024/01/27 11:57:23;;;;;;;14.60;5.27;;;8.40;98.00;;;;;;5013544;28;20490;-64
2024/01/27 11:59:50;;;;;;;12.57;4.73;;;8.70;98.00;;;;;;5013723;28;20465;-64
2024/01/27 12:02:18;;;;;;;8.37;4.20;;;8.80;98.00;;;;;;5013133;28;20993;-64
2024/01/27 12:04:45;;;;;;;10.60;4.60;;;9.10;98.00;;;;;;5013718;28;20490;-64
2024/01/27 12:07:14;;;;;;;14.53;5.00;;;9.50;98.00;;;;;;5013851;28;20445;-64
2024/01/27 12:09:41;;;;;;;10.67;4.53;;;9.60;98.00;;;;;;5013798;28;20450;-64
2024/01/27 12:12:09;;;;;;;8.43;4.23;;;9.90;98.00;;;;;;5013296;28;20488;-64
2024/01/27 12:14:46;;;;;;;7.63;3.87;;;10.20;98.00;;;;;;5012990;28;20462;-64
2024/01/27 12:17:14;;;;;;;6.90;3.93;;;10.40;98.00;;;;;;5013469;28;20472;-64
2024/01/27 12:19:48;;;;;;;8.63;4.40;;;10.70;98.00;;;;;;5013556;28;20463;-64
2024/01/27 12:22:25;;;;;;;9.17;3.80;;;10.80;98.00;;;;;;5013267;28;20578;-64
2024/01/27 12:24:53;;;;;;;6.50;3.67;;;11.10;98.00;;;;;;5013320;28;20458;-64
2024/01/27 12:27:20;;;;;;;7.93;3.93;;;11.20;98.00;;;;;;5013171;28;20463;-64
2024/01/27 12:29:49;;;;;;;9.63;3.60;;;11.40;98.00;;;;;;5013359;28;20459;-64
2024/01/27 12:32:17;;;;;;;9.00;3.33;;;11.50;98.00;;;;;;5013241;28;20490;-64
2024/01/27 12:34:45;;;;;;;7.40;3.60;;;11.50;98.00;;;;;;5012157;28;20463;-64
2024/01/27 12:37:13;;;;;;;9.20;3.70;;;11.70;98.00;;;;;;5012963;28;20444;-64
2024/01/27 12:39:44;;;;;;;4.17;2.77;;;11.80;98.00;;;;;;5012971;28;20838;-63
2024/01/27 12:42:11;;;;;;;5.40;2.83;;;11.80;98.00;;;;;;5012896;28;20524;-63
2024/01/27 12:44:40;;;;;;;5.57;3.63;;;11.90;98.00;;;;;;5011881;28;20458;-64
2024/01/27 12:47:07;;;;;;;5.43;2.97;;;11.90;98.00;;;;;;5012755;28;20460;-64
2024/01/27 12:49:35;;;;;;;7.37;2.77;;;11.90;98.00;;;;;;5012949;28;20453;-64
2024/01/27 12:52:03;;;;;;;6.07;2.70;;;11.80;98.00;;;;;;5011772;28;20859;-64
2024/01/27 12:54:30;;;;;;;5.97;2.60;;;11.70;98.00;;;;;;5012796;28;20487;-64
2024/01/27 12:57:01;;;;;;;5.97;3.20;;;12.20;98.00;;;;;;5012797;28;20465;-64